createdAt,value
2019-04-28T00:03:45.389Z,8.55
2019-04-28T00:08:48.943Z,8.93
2019-04-28T00:13:53.632Z,9.55
2019-04-28T00:18:58.132Z,10.40
2019-04-28T00:24:09.147Z,9.73
2019-04-28T00:29:12.658Z,9.78
2019-04-28T00:34:16.164Z,9.18
2019-04-28T00:39:21.203Z,10.38
2019-04-28T00:44:25.885Z,10.32
2019-04-28T00:49:47.516Z,12.80
2019-04-28T00:54:52.543Z,11.80
2019-04-28T00:59:58.727Z,13.08
2019-04-28T01:05:01.971Z,12.73
2019-04-28T01:10:06.918Z,11.95
2019-04-28T01:15:12.938Z,12.10
2019-04-28T01:20:20.942Z,11.70
2019-04-28T01:25:24.583Z,12.33
2019-04-28T01:30:45.963Z,12.55
2019-04-28T01:35:49.476Z,12.13
2019-04-28T01:40:53.202Z,11.15
2019-04-28T01:45:56.799Z,11.15
2019-04-28T01:51:00.419Z,10.72
2019-04-28T01:56:04.094Z,13.80
2019-04-28T02:01:07.701Z,12.68
2019-04-28T02:06:11.455Z,10.40
2019-04-28T02:11:15.605Z,11.83
2019-04-28T02:16:19.525Z,11.48
2019-04-28T02:21:33.944Z,12.07
2019-04-28T02:26:37.617Z,12.60
2019-04-28T02:31:41.954Z,14.10
2019-04-28T02:36:45.709Z,14.35
2019-04-28T02:41:51.177Z,14.47
2019-04-28T02:46:54.570Z,15.25
2019-04-28T02:52:03.130Z,13.90
2019-04-28T02:57:07.109Z,14.70
2019-04-28T03:02:10.810Z,13.95
2019-04-28T03:07:14.771Z,13.60
2019-04-28T03:12:21.320Z,14.73
2019-04-28T03:17:23.724Z,15.23
2019-04-28T03:22:27.658Z,15.32
2019-04-28T03:27:32.990Z,16.30
2019-04-28T03:32:51.758Z,16.97
2019-04-28T03:37:43.536Z,15.35
2019-04-28T03:42:47.441Z,17.00
2019-04-28T03:47:51.098Z,15.95
2019-04-28T03:52:54.656Z,17.32
2019-04-28T03:58:00.790Z,16.95
2019-04-28T04:03:03.646Z,17.10
2019-04-28T04:08:07.227Z,18.20
2019-04-28T04:13:20.119Z,16.42
2019-04-28T04:18:25.694Z,18.77
2019-04-28T04:23:30.935Z,17.48
2019-04-28T04:28:34.725Z,17.92
2019-04-28T04:33:41.297Z,18.48
2019-04-28T04:38:46.440Z,19.77
2019-04-28T04:43:51.488Z,20.25
2019-04-28T04:48:55.228Z,19.42
2019-04-28T04:54:01.209Z,17.55
2019-04-28T04:59:04.286Z,19.10
2019-04-28T05:04:19.708Z,19.35
2019-04-28T05:09:23.288Z,17.73
2019-04-28T05:14:26.802Z,17.92
2019-04-28T05:19:30.532Z,18.45
2019-04-28T05:24:40.299Z,17.52
2019-04-28T05:29:43.934Z,17.42
2019-04-28T05:34:50.247Z,20.02
2019-04-28T05:39:52.932Z,19.15
2019-04-28T05:44:56.547Z,17.87
2019-04-28T05:50:07.745Z,17.90
2019-04-28T05:55:20.337Z,19.40
2019-04-28T06:00:39.947Z,20.62
2019-04-28T06:05:42.855Z,96.22
2019-04-28T06:10:46.578Z,90.55
2019-04-28T06:15:50.093Z,26.73
2019-04-28T06:20:53.683Z,21.87
2019-04-28T06:25:57.258Z,19.45
2019-04-28T06:31:00.860Z,21.65
2019-04-28T06:36:04.471Z,22.48
2019-04-28T06:41:08.415Z,18.67
2019-04-28T06:46:12.030Z,18.82
2019-04-28T06:51:15.636Z,42.85
2019-04-28T06:56:19.348Z,37.30
2019-04-28T07:01:22.935Z,20.82
2019-04-28T07:06:26.522Z,21.57
2019-04-28T07:11:30.610Z,17.65
2019-04-28T07:16:34.914Z,19.15
2019-04-28T07:21:40.315Z,22.15
2019-04-28T07:26:43.898Z,21.45
2019-04-28T07:31:47.542Z,21.55
2019-04-28T07:36:51.137Z,21.55
2019-04-28T07:41:54.749Z,23.42
2019-04-28T07:46:58.346Z,23.47
2019-04-28T07:52:03.640Z,19.37
2019-04-28T07:57:07.230Z,20.80
2019-04-28T08:02:10.870Z,18.77
2019-04-28T08:07:14.523Z,18.42
2019-04-28T08:12:18.403Z,17.60
2019-04-28T08:17:22.100Z,16.12
2019-04-28T08:22:25.670Z,16.70
2019-04-28T08:27:29.332Z,15.10
2019-04-28T08:32:49.743Z,12.37
2019-04-28T08:37:53.434Z,13.55
2019-04-28T08:42:57.067Z,25.27
2019-04-28T08:48:00.620Z,10.58
2019-04-28T08:53:04.335Z,13.75
2019-04-28T08:58:08.187Z,12.80
2019-04-28T09:03:11.814Z,11.08
2019-04-28T09:08:15.424Z,9.70
2019-04-28T09:13:19.037Z,8.08
2019-04-28T09:18:25.227Z,9.23
2019-04-28T09:23:28.803Z,7.28
2019-04-28T09:28:33.936Z,7.67
2019-04-28T09:33:37.544Z,7.80
2019-04-28T09:38:41.196Z,8.25
2019-04-28T09:43:52.246Z,9.68
2019-04-28T09:48:55.850Z,6.92
2019-04-28T09:54:01.015Z,7.33
2019-04-28T09:59:05.315Z,6.85
2019-04-28T10:04:08.929Z,6.15
2019-04-28T10:09:13.436Z,7.40
2019-04-28T10:14:17.098Z,9.05
2019-04-28T10:19:20.723Z,6.08
2019-04-28T10:24:24.501Z,6.67
2019-04-28T10:29:28.116Z,6.35
2019-04-28T10:34:31.686Z,19.85
2019-04-28T10:39:45.707Z,6.80
2019-04-28T10:44:50.667Z,9.75
2019-04-28T10:49:54.273Z,6.62
2019-04-28T10:54:57.795Z,6.42
2019-04-28T11:00:01.618Z,4.55
2019-04-28T11:05:09.038Z,7.33
2019-04-28T11:10:14.744Z,8.88
2019-04-28T11:15:23.313Z,5.10
2019-04-28T11:20:27.230Z,7.05
2019-04-28T11:25:31.220Z,5.70
2019-04-28T11:30:34.836Z,8.80
2019-04-28T11:35:40.080Z,7.42
2019-04-28T11:40:43.821Z,6.62
2019-04-28T11:45:47.392Z,7.97
2019-04-28T11:50:51.447Z,8.78
2019-04-28T11:55:54.985Z,7.90
2019-04-28T12:00:59.269Z,6.87
2019-04-28T12:06:02.981Z,7.35
2019-04-28T12:11:26.212Z,9.10
2019-04-28T12:16:47.774Z,8.13
2019-04-28T12:21:51.643Z,7.42
2019-04-28T12:26:55.481Z,9.88
2019-04-28T12:31:59.488Z,7.53
2019-04-28T12:37:03.281Z,6.37
2019-04-28T12:42:07.199Z,8.23
2019-04-28T12:47:11.007Z,7.85
2019-04-28T12:52:16.035Z,7.58
2019-04-28T12:57:19.955Z,8.40
2019-04-28T13:02:28.208Z,7.40
2019-04-28T13:07:35.441Z,7.67
2019-04-28T13:12:39.152Z,6.85
2019-04-28T13:17:42.985Z,7.40
2019-04-28T13:22:46.749Z,8.15
2019-04-28T13:27:50.628Z,6.58
2019-04-28T13:32:54.475Z,9.20
2019-04-28T13:37:58.334Z,7.72
2019-04-28T13:43:02.235Z,8.35
2019-04-28T13:48:06.115Z,7.80
2019-04-28T13:53:10.022Z,9.03
2019-04-28T13:58:13.928Z,9.20
2019-04-28T14:03:31.837Z,10.68
2019-04-28T14:08:35.740Z,9.17
2019-04-28T14:13:39.574Z,10.50
2019-04-28T14:18:43.430Z,9.20
2019-04-28T14:23:47.108Z,11.12
2019-04-28T14:28:50.897Z,12.40
2019-04-28T14:33:54.769Z,11.85
2019-04-28T14:38:58.499Z,11.83
2019-04-28T14:44:02.366Z,11.38
2019-04-28T14:49:06.151Z,12.40
2019-04-28T14:54:10.823Z,11.20
2019-04-28T14:59:14.572Z,13.72
2019-04-28T15:04:20.932Z,9.05
2019-04-28T15:09:35.711Z,11.83
2019-04-28T15:14:39.678Z,11.12
2019-04-28T15:19:43.571Z,10.30
2019-04-28T15:24:47.286Z,10.25
2019-04-28T15:29:51.052Z,10.78
2019-04-28T15:34:54.879Z,12.00
2019-04-28T15:40:00.268Z,10.58
2019-04-28T15:45:05.037Z,9.40
2019-04-28T15:50:08.853Z,9.68
2019-04-28T15:55:14.394Z,10.90
2019-04-28T16:00:18.382Z,10.35
2019-04-28T16:05:22.225Z,12.47
2019-04-28T16:10:26.078Z,13.38
2019-04-28T16:15:29.994Z,14.68
2019-04-28T16:20:34.093Z,17.27
2019-04-28T16:25:38.168Z,15.58
2019-04-28T16:30:41.907Z,14.90
2019-04-28T16:35:45.661Z,16.12
2019-04-28T16:40:53.046Z,15.93
2019-04-28T16:45:56.878Z,16.10
2019-04-28T16:51:00.677Z,14.73
2019-04-28T16:56:06.344Z,15.08
2019-04-28T17:01:14.518Z,15.05
2019-04-28T17:06:18.446Z,16.93
2019-04-28T17:11:22.267Z,18.65
2019-04-28T17:16:26.012Z,17.40
2019-04-28T17:21:29.984Z,19.37
2019-04-28T17:26:33.794Z,24.70
2019-04-28T17:31:37.574Z,20.25
2019-04-28T17:36:41.484Z,20.85
2019-04-28T17:41:45.278Z,21.95
2019-04-28T17:46:48.867Z,27.27
2019-04-28T17:51:52.854Z,25.45
2019-04-28T17:56:56.769Z,24.55
2019-04-28T18:02:04.981Z,26.65
2019-04-28T18:07:28.603Z,23.07
2019-04-28T18:12:32.294Z,25.60
2019-04-28T18:17:40.737Z,21.95
2019-04-28T18:22:44.541Z,20.48
2019-04-28T18:27:48.228Z,22.58
2019-04-28T18:33:02.170Z,26.07
2019-04-28T18:38:13.130Z,21.95
2019-04-28T18:43:24.017Z,23.02
2019-04-28T18:48:27.685Z,24.47
2019-04-28T18:53:31.287Z,25.43
2019-04-28T18:58:34.873Z,23.40
2019-04-28T19:03:38.538Z,22.62
2019-04-28T19:08:49.318Z,24.32
2019-04-28T19:13:50.777Z,28.95
2019-04-28T19:19:07.770Z,22.73
2019-04-28T19:24:11.345Z,21.00
2019-04-28T19:29:14.869Z,22.45
2019-04-28T19:34:21.124Z,19.07
2019-04-28T19:39:24.840Z,18.95
2019-04-28T19:44:28.486Z,19.48
2019-04-28T19:49:32.107Z,19.92
2019-04-28T19:54:37.500Z,20.17
2019-04-28T19:59:58.722Z,21.90
2019-04-28T20:05:02.721Z,20.12
2019-04-28T20:10:07.064Z,18.23
2019-04-28T20:15:11.241Z,18.70
2019-04-28T20:20:15.782Z,20.77
2019-04-28T20:25:19.336Z,22.42
2019-04-28T20:30:22.945Z,21.70
2019-04-28T20:35:30.752Z,20.12
2019-04-28T20:40:39.226Z,19.65
2019-04-28T20:45:43.244Z,22.65
2019-04-28T20:50:46.757Z,27.42
2019-04-28T20:55:50.393Z,27.05
2019-04-28T21:00:53.986Z,27.42
2019-04-28T21:05:58.047Z,25.48
2019-04-28T21:11:01.668Z,24.85
2019-04-28T21:16:05.431Z,28.02
2019-04-28T21:21:09.012Z,21.42
2019-04-28T21:26:12.582Z,22.73
2019-04-28T21:31:16.203Z,20.90
2019-04-28T21:36:19.862Z,20.15
2019-04-28T21:41:23.414Z,20.62
2019-04-28T21:46:28.700Z,17.12
2019-04-28T21:51:32.284Z,16.82
2019-04-28T21:56:35.846Z,15.20
2019-04-28T22:01:39.744Z,12.73
2019-04-28T22:06:43.363Z,14.30
2019-04-28T22:11:46.942Z,12.82
2019-04-28T22:16:50.540Z,11.80
2019-04-28T22:21:54.116Z,13.32
2019-04-28T22:26:57.669Z,13.38
2019-04-28T22:32:01.357Z,12.65
2019-04-28T22:37:05.003Z,11.18
2019-04-28T22:42:09.231Z,12.13
2019-04-28T22:47:12.831Z,13.18
2019-04-28T22:52:16.427Z,9.95
2019-04-28T22:57:30.545Z,9.73
2019-04-28T23:02:34.407Z,10.70
2019-04-28T23:12:56.356Z,10.55
2019-04-28T23:18:00.365Z,9.85
2019-04-28T23:23:05.850Z,9.10
2019-04-28T23:28:16.967Z,9.65
2019-04-28T23:33:20.962Z,9.05
2019-04-28T23:38:24.685Z,8.38
2019-04-28T23:43:28.493Z,7.97
2019-04-28T23:48:32.329Z,9.38
2019-04-28T23:53:54.018Z,8.25
2019-04-28T23:58:57.999Z,7.85
